Alief, Texas
Current Conditions -  °F | °C
As of 3:53 PM on Monday 22 Dec 2014 (Local Time) from KSGR Reporting Station
Clear Clear  
Wind Chill: 72°   Ceiling: Unl
Heat Index: 72°   Visibility: 10mi
Dew Point: 61°   Wind: 9mph
Humidity: 68%   Direction: 210°SSW
Pressure: 29.61"   Gusts: NA
Location:  29.71°N, 95.6°W
Report Text: KSGR 222153Z 21008KT 10SM CLR 22/16 A2961 RMK AO2 SLP028 T02220161
Loading
Personal Weather Stations






























Interactive Weather Map New forecast layout! Learn more

10-Day Weather Forecast

Advertisements
Track Severe Weather on mobile